createdAt,value
2018-06-22T00:00:33.298Z,20.91
2018-06-22T00:01:33.328Z,20.99
2018-06-22T00:02:33.356Z,20.93
2018-06-22T00:03:33.424Z,20.95
2018-06-22T00:04:33.462Z,20.81
2018-06-22T00:05:33.496Z,20.83
2018-06-22T00:06:33.579Z,20.87
2018-06-22T00:07:33.613Z,20.80
2018-06-22T00:08:33.677Z,20.83
2018-06-22T00:09:33.722Z,20.84
2018-06-22T00:10:33.752Z,20.72
2018-06-22T00:11:33.790Z,20.76
2018-06-22T00:12:33.829Z,20.72
2018-06-22T00:13:33.896Z,20.66
2018-06-22T00:14:33.935Z,20.66
2018-06-22T00:15:34.176Z,20.74
2018-06-22T00:16:34.025Z,20.72
2018-06-22T00:17:34.066Z,20.68
2018-06-22T00:18:34.144Z,20.71
2018-06-22T00:19:34.184Z,20.62
2018-06-22T00:20:34.209Z,20.83
2018-06-22T00:21:34.255Z,20.69
2018-06-22T00:22:34.300Z,20.77
2018-06-22T00:23:34.361Z,20.80
2018-06-22T00:24:34.366Z,20.80
2018-06-22T00:25:34.477Z,20.95
2018-06-22T00:26:34.477Z,20.93
2018-06-22T00:27:34.542Z,20.96
2018-06-22T00:28:34.567Z,20.87
2018-06-22T00:29:34.612Z,20.93
2018-06-22T00:30:34.675Z,20.93
2018-06-22T00:31:34.710Z,20.93
2018-06-22T00:32:34.756Z,20.99
2018-06-22T00:33:34.803Z,21.02
2018-06-22T00:34:34.866Z,21.04
2018-06-22T00:35:34.910Z,21.04
2018-06-22T00:36:34.953Z,21.05
2018-06-22T00:37:34.992Z,21.16
2018-06-22T00:38:35.048Z,21.08
2018-06-22T00:39:35.085Z,21.02
2018-06-22T00:40:35.123Z,21.04
2018-06-22T00:41:35.173Z,21.19
2018-06-22T00:42:35.228Z,21.09
2018-06-22T00:43:35.296Z,21.09
2018-06-22T00:44:35.324Z,21.13
2018-06-22T00:45:35.371Z,21.09
2018-06-22T00:46:35.403Z,21.11
2018-06-22T00:47:35.455Z,21.08
2018-06-22T00:48:35.501Z,21.05
2018-06-22T00:49:35.562Z,21.09
2018-06-22T00:50:35.593Z,21.11
2018-06-22T00:51:35.651Z,21.14
2018-06-22T00:52:35.681Z,21.08
2018-06-22T00:53:35.718Z,21.09
2018-06-22T00:54:35.788Z,21.11
2018-06-22T00:55:35.834Z,21.19
2018-06-22T00:56:35.866Z,21.16
2018-06-22T00:57:35.900Z,21.19
2018-06-22T00:58:35.979Z,21.11
2018-06-22T00:59:36.006Z,21.14
2018-06-22T01:00:36.037Z,21.16
2018-06-22T01:01:36.091Z,21.21
2018-06-22T01:02:36.154Z,21.19
2018-06-22T01:03:36.189Z,21.21
2018-06-22T01:04:36.238Z,21.16
2018-06-22T01:05:36.279Z,21.23
2018-06-22T01:06:36.329Z,21.23
2018-06-22T01:07:36.411Z,21.20
2018-06-22T01:08:36.423Z,21.17
2018-06-22T01:09:36.470Z,21.13
2018-06-22T01:10:36.507Z,21.08
2018-06-22T01:11:36.572Z,21.13
2018-06-22T01:12:36.598Z,21.14
2018-06-22T01:13:36.665Z,21.14
2018-06-22T01:14:36.721Z,21.01
2018-06-22T01:15:36.772Z,21.05
2018-06-22T01:16:36.826Z,21.09
2018-06-22T01:17:36.857Z,21.13
2018-06-22T01:18:36.903Z,21.13
2018-06-22T01:19:36.979Z,21.14
2018-06-22T01:20:36.982Z,21.13
2018-06-22T01:21:37.040Z,21.17
2018-06-22T01:22:37.074Z,21.14
2018-06-22T01:23:37.156Z,21.20
2018-06-22T01:24:37.169Z,21.16
2018-06-22T01:25:37.251Z,21.05
2018-06-22T01:26:37.272Z,21.04
2018-06-22T01:27:37.306Z,20.96
2018-06-22T01:28:37.368Z,21.02
2018-06-22T01:29:37.419Z,20.98
2018-06-22T01:30:37.466Z,20.79
2018-06-22T01:31:37.521Z,20.81
2018-06-22T01:32:37.546Z,20.72
2018-06-22T01:33:37.572Z,20.68
2018-06-22T01:34:37.644Z,20.66
2018-06-22T01:35:37.679Z,20.68
2018-06-22T01:36:37.738Z,20.58
2018-06-22T01:37:37.798Z,20.54
2018-06-22T01:38:37.812Z,20.53
2018-06-22T01:39:37.871Z,20.59
2018-06-22T01:40:37.918Z,20.54
2018-06-22T01:41:37.968Z,20.53
2018-06-22T01:42:38.026Z,20.54
2018-06-22T01:43:38.042Z,20.64
2018-06-22T01:44:38.085Z,20.54
2018-06-22T01:45:38.147Z,20.53
2018-06-22T01:46:38.199Z,20.50
2018-06-22T01:47:38.239Z,20.58
2018-06-22T01:48:38.281Z,20.54
2018-06-22T01:49:38.329Z,20.64
2018-06-22T01:50:38.375Z,20.65
2018-06-22T01:51:38.419Z,20.69
2018-06-22T01:52:38.485Z,20.68
2018-06-22T01:53:38.496Z,20.68
2018-06-22T01:54:38.566Z,20.68
2018-06-22T01:55:38.621Z,20.74
2018-06-22T01:56:38.655Z,20.71
2018-06-22T01:57:38.682Z,20.68
2018-06-22T01:58:38.725Z,20.68
2018-06-22T01:59:38.787Z,20.80
2018-06-22T02:00:38.850Z,20.77
2018-06-22T02:01:38.860Z,20.74
2018-06-22T02:02:38.953Z,20.76
2018-06-22T02:03:38.962Z,20.79
2018-06-22T02:04:39.018Z,20.81
2018-06-22T02:05:39.125Z,20.87
2018-06-22T02:06:39.099Z,20.79
2018-06-22T02:07:39.154Z,20.79
2018-06-22T02:08:39.228Z,20.80
2018-06-22T02:09:39.248Z,20.79
2018-06-22T02:10:39.516Z,20.83
2018-06-22T02:11:39.352Z,20.83
2018-06-22T02:12:39.392Z,20.79
2018-06-22T02:13:39.451Z,20.77
2018-06-22T02:14:39.475Z,20.77
2018-06-22T02:15:39.534Z,20.65
2018-06-22T02:16:39.554Z,20.68
2018-06-22T02:17:39.622Z,20.74
2018-06-22T02:18:39.677Z,20.71
2018-06-22T02:19:39.729Z,20.69
2018-06-22T02:20:39.767Z,20.66
2018-06-22T02:21:40.019Z,20.71
2018-06-22T02:22:39.848Z,20.68
2018-06-22T02:23:39.911Z,20.62
2018-06-22T02:24:39.950Z,20.56
2018-06-22T02:25:40.009Z,20.56
2018-06-22T02:26:40.041Z,20.58
2018-06-22T02:27:40.088Z,20.58
2018-06-22T02:28:40.130Z,20.58
2018-06-22T02:29:40.183Z,20.62
2018-06-22T02:30:40.222Z,20.59
2018-06-22T02:31:40.257Z,20.50
2018-06-22T02:32:40.301Z,20.47
2018-06-22T02:33:40.375Z,20.42
2018-06-22T02:34:40.393Z,20.43
2018-06-22T02:35:40.447Z,20.41
2018-06-22T02:36:40.476Z,20.51
2018-06-22T02:37:40.733Z,20.35
2018-06-22T02:38:40.585Z,20.34
2018-06-22T02:39:40.623Z,20.38
2018-06-22T02:40:40.673Z,20.25
2018-06-22T02:41:40.714Z,20.24
2018-06-22T02:42:40.787Z,20.31
2018-06-22T02:43:40.806Z,20.30
2018-06-22T02:44:40.872Z,20.24
2018-06-22T02:45:40.941Z,20.30
2018-06-22T02:46:41.008Z,20.30
2018-06-22T02:47:41.017Z,20.24
2018-06-22T02:48:41.064Z,20.09
2018-06-22T02:49:41.115Z,20.16
2018-06-22T02:50:41.147Z,20.12
2018-06-22T02:51:41.167Z,20.12
2018-06-22T02:52:41.240Z,20.15
2018-06-22T02:53:41.392Z,20.16
2018-06-22T02:54:41.325Z,20.10
2018-06-22T02:55:41.356Z,20.16
2018-06-22T02:56:41.410Z,19.95
2018-06-22T02:57:41.443Z,20.10
2018-06-22T02:58:41.521Z,20.10
2018-06-22T02:59:41.593Z,20.00
2018-06-22T03:00:41.812Z,20.03
2018-06-22T03:01:41.671Z,20.02
2018-06-22T03:02:41.704Z,20.09
2018-06-22T03:03:41.763Z,20.08
2018-06-22T03:04:41.795Z,20.02
2018-06-22T03:05:41.907Z,19.97
2018-06-22T03:06:41.879Z,19.90
2018-06-22T03:07:41.898Z,19.88
2018-06-22T03:08:41.980Z,19.94
2018-06-22T03:09:42.021Z,19.91
2018-06-22T03:10:42.062Z,19.97
2018-06-22T03:11:42.295Z,19.93
2018-06-22T03:12:42.159Z,19.86
2018-06-22T03:13:42.173Z,19.87
2018-06-22T03:14:42.257Z,19.75
2018-06-22T03:15:42.276Z,19.72
2018-06-22T03:16:42.359Z,19.73
2018-06-22T03:17:42.374Z,19.63
2018-06-22T03:18:42.429Z,19.68
2018-06-22T03:19:42.454Z,19.60
2018-06-22T03:20:42.498Z,19.58
2018-06-22T03:21:42.656Z,19.55
2018-06-22T03:22:42.592Z,19.57
2018-06-22T03:23:42.652Z,19.53
2018-06-22T03:24:42.691Z,19.46
2018-06-22T03:25:42.733Z,19.43
2018-06-22T03:26:42.983Z,19.40
2018-06-22T03:27:42.821Z,19.48
2018-06-22T03:28:42.862Z,19.50
2018-06-22T03:29:42.931Z,19.42
2018-06-22T03:30:42.997Z,19.40
2018-06-22T03:31:43.004Z,19.36
2018-06-22T03:32:43.168Z,19.39
2018-06-22T03:33:43.107Z,19.40
2018-06-22T03:34:43.138Z,19.35
2018-06-22T03:35:43.174Z,19.28
2018-06-22T03:36:43.218Z,19.33
2018-06-22T03:37:43.284Z,19.29
2018-06-22T03:38:43.324Z,19.31
2018-06-22T03:39:43.461Z,19.21
2018-06-22T03:40:43.401Z,19.17
2018-06-22T03:41:43.468Z,19.15
2018-06-22T03:42:43.480Z,19.17
2018-06-22T03:43:43.545Z,19.13
2018-06-22T03:44:43.800Z,19.13
2018-06-22T03:45:43.660Z,19.13
2018-06-22T03:46:43.667Z,19.08
2018-06-22T03:47:43.705Z,19.05
2018-06-22T03:48:43.783Z,19.10
2018-06-22T03:49:43.818Z,19.02
2018-06-22T03:50:43.948Z,18.99
2018-06-22T03:51:43.915Z,19.08
2018-06-22T03:52:43.971Z,19.01
2018-06-22T03:53:43.997Z,19.02
2018-06-22T03:54:44.044Z,18.99
2018-06-22T03:55:44.082Z,18.95
2018-06-22T03:56:44.368Z,18.95
2018-06-22T03:57:44.158Z,18.90
2018-06-22T03:58:44.237Z,18.94
2018-06-22T03:59:44.264Z,18.91
2018-06-22T04:00:44.287Z,18.90
2018-06-22T04:01:44.342Z,18.91
2018-06-22T04:02:44.424Z,18.87
2018-06-22T04:03:44.453Z,18.92
2018-06-22T04:04:44.495Z,18.92
2018-06-22T04:05:44.540Z,18.91
2018-06-22T04:06:44.589Z,18.91
2018-06-22T04:07:44.641Z,18.87
2018-06-22T04:08:44.686Z,18.87
2018-06-22T04:09:44.695Z,18.92
2018-06-22T04:10:44.754Z,18.87
2018-06-22T04:11:44.803Z,18.80
2018-06-22T04:12:44.872Z,18.79
2018-06-22T04:13:44.880Z,18.72
2018-06-22T04:14:44.929Z,18.77
2018-06-22T04:15:44.962Z,18.79
2018-06-22T04:16:45.050Z,18.83
2018-06-22T04:17:45.068Z,18.79
2018-06-22T04:18:45.123Z,18.90
2018-06-22T04:19:45.189Z,18.79
2018-06-22T04:20:45.195Z,18.76
2018-06-22T04:21:45.273Z,18.72
2018-06-22T04:22:45.280Z,18.80
2018-06-22T04:23:45.319Z,18.72
2018-06-22T04:24:45.582Z,18.67
2018-06-22T04:25:45.444Z,18.73
2018-06-22T04:26:45.464Z,18.62
2018-06-22T04:27:45.528Z,18.55
2018-06-22T04:28:45.558Z,18.61
2018-06-22T04:29:45.592Z,18.62
2018-06-22T04:30:45.634Z,18.59
2018-06-22T04:31:45.666Z,18.47
2018-06-22T04:32:45.733Z,18.55
2018-06-22T04:33:45.770Z,18.50
2018-06-22T04:34:45.827Z,18.50
2018-06-22T04:35:46.061Z,18.49
2018-06-22T04:36:45.910Z,18.44
2018-06-22T04:37:45.969Z,18.40
2018-06-22T04:38:46.053Z,18.49
2018-06-22T04:39:46.046Z,18.44
2018-06-22T04:40:46.084Z,18.44
2018-06-22T04:41:46.142Z,18.42
2018-06-22T04:42:46.191Z,18.40
2018-06-22T04:43:46.221Z,18.36
2018-06-22T04:44:46.249Z,18.37
2018-06-22T04:45:46.302Z,18.34
2018-06-22T04:46:46.327Z,18.39
2018-06-22T04:47:46.772Z,18.39
2018-06-22T04:48:46.428Z,18.34
2018-06-22T04:49:46.492Z,18.39
2018-06-22T04:50:46.532Z,18.40
2018-06-22T04:51:46.570Z,18.43
2018-06-22T04:52:46.623Z,18.44
2018-06-22T04:53:46.663Z,18.40
2018-06-22T04:54:46.726Z,18.42
2018-06-22T04:55:46.756Z,18.37
2018-06-22T04:56:46.770Z,18.33
2018-06-22T04:57:46.848Z,18.27
2018-06-22T04:58:46.872Z,18.24
2018-06-22T04:59:46.952Z,18.33
2018-06-22T05:00:46.969Z,18.19
2018-06-22T05:01:46.992Z,18.19
2018-06-22T05:02:47.076Z,18.17
2018-06-22T05:03:47.315Z,18.17
2018-06-22T05:04:47.143Z,18.13
2018-06-22T05:05:47.230Z,18.15
2018-06-22T05:06:47.235Z,18.18
2018-06-22T05:07:47.303Z,18.10
2018-06-22T05:08:47.317Z,18.09
2018-06-22T05:09:47.359Z,18.13
2018-06-22T05:10:47.639Z,18.21
2018-06-22T05:11:47.477Z,18.18
2018-06-22T05:12:47.523Z,18.21
2018-06-22T05:13:47.548Z,18.02
2018-06-22T05:14:47.583Z,18.10
2018-06-22T05:15:47.697Z,18.09
2018-06-22T05:16:47.680Z,18.10
2018-06-22T05:17:47.705Z,18.04
2018-06-22T05:18:47.758Z,18.02
2018-06-22T05:19:47.800Z,18.02
2018-06-22T05:20:47.866Z,17.99
2018-06-22T05:21:48.157Z,18.02
2018-06-22T05:22:47.954Z,17.97
2018-06-22T05:23:47.994Z,18.03
2018-06-22T05:24:48.098Z,17.94
2018-06-22T05:25:48.106Z,18.00
2018-06-22T05:26:48.118Z,17.94
2018-06-22T05:27:48.164Z,17.92
2018-06-22T05:28:48.211Z,17.92
2018-06-22T05:29:48.257Z,17.95
2018-06-22T05:30:48.330Z,17.95
2018-06-22T05:31:48.339Z,17.95
2018-06-22T05:32:48.381Z,17.91
2018-06-22T05:33:48.615Z,17.89
2018-06-22T05:34:48.456Z,17.79
2018-06-22T05:35:48.518Z,17.87
2018-06-22T05:36:48.574Z,17.79
2018-06-22T05:37:48.588Z,17.91
2018-06-22T05:38:48.675Z,17.82
2018-06-22T05:39:48.718Z,17.81
2018-06-22T05:40:48.729Z,17.84
2018-06-22T05:41:48.778Z,17.79
2018-06-22T05:42:48.821Z,17.74
2018-06-22T05:43:48.864Z,17.73
2018-06-22T05:44:49.118Z,17.79
2018-06-22T05:45:48.945Z,17.73
2018-06-22T05:46:49.028Z,17.73
2018-06-22T05:47:49.025Z,17.70
2018-06-22T05:48:49.106Z,17.74
2018-06-22T05:49:49.125Z,17.69
2018-06-22T05:50:49.265Z,17.74
2018-06-22T05:51:49.232Z,17.67
2018-06-22T05:52:49.281Z,17.66
2018-06-22T05:53:49.301Z,17.64
2018-06-22T05:54:49.358Z,17.66
2018-06-22T05:55:49.390Z,17.59
2018-06-22T05:56:49.702Z,17.67
2018-06-22T05:57:49.480Z,17.59
2018-06-22T05:58:49.514Z,17.63
2018-06-22T05:59:49.566Z,17.48
2018-06-22T06:00:49.629Z,17.59
2018-06-22T06:01:49.633Z,17.51
2018-06-22T06:02:49.682Z,17.47
2018-06-22T06:03:49.733Z,17.63
2018-06-22T06:04:49.756Z,17.53
2018-06-22T06:05:49.832Z,17.53
2018-06-22T06:06:49.884Z,17.47
2018-06-22T06:07:49.915Z,17.62
2018-06-22T06:08:50.158Z,17.50
2018-06-22T06:09:49.972Z,17.48
2018-06-22T06:10:50.047Z,17.46
2018-06-22T06:11:50.116Z,17.46
2018-06-22T06:12:50.111Z,17.50
2018-06-22T06:13:50.188Z,17.51
2018-06-22T06:14:50.233Z,17.43
2018-06-22T06:15:50.241Z,17.44
2018-06-22T06:16:50.294Z,17.41
2018-06-22T06:17:50.356Z,17.44
2018-06-22T06:18:50.398Z,17.46
2018-06-22T06:19:50.431Z,17.43
2018-06-22T06:20:50.486Z,17.41
2018-06-22T06:21:50.537Z,17.43
2018-06-22T06:22:50.571Z,17.46
2018-06-22T06:23:50.604Z,17.33
2018-06-22T06:24:50.639Z,17.25
2018-06-22T06:25:50.720Z,17.40
2018-06-22T06:26:50.759Z,17.26
2018-06-22T06:27:50.802Z,17.29
2018-06-22T06:28:50.819Z,17.38
2018-06-22T06:29:50.869Z,17.40
2018-06-22T06:30:50.909Z,17.26
2018-06-22T06:31:50.969Z,17.43
2018-06-22T06:32:51.012Z,17.40
2018-06-22T06:33:51.055Z,17.25
2018-06-22T06:34:51.105Z,17.35
2018-06-22T06:35:51.159Z,17.28
2018-06-22T06:36:51.196Z,17.30
2018-06-22T06:37:51.233Z,17.22
2018-06-22T06:38:51.286Z,17.32
2018-06-22T06:39:51.518Z,17.28
2018-06-22T06:40:51.354Z,17.26
2018-06-22T06:41:51.479Z,17.29
2018-06-22T06:42:51.426Z,17.28
2018-06-22T06:43:51.479Z,17.36
2018-06-22T06:44:51.523Z,17.29
2018-06-22T06:45:51.573Z,17.28
2018-06-22T06:46:51.609Z,17.36
2018-06-22T06:47:51.645Z,17.28
2018-06-22T06:48:51.686Z,17.35
2018-06-22T06:49:51.737Z,17.35
2018-06-22T06:50:51.783Z,17.30
2018-06-22T06:51:52.054Z,17.25
2018-06-22T06:52:51.856Z,17.23
2018-06-22T06:53:51.898Z,17.28
2018-06-22T06:54:51.989Z,17.26
2018-06-22T06:55:52.010Z,17.23
2018-06-22T06:56:52.096Z,17.25
2018-06-22T06:57:52.114Z,17.25
2018-06-22T06:58:52.128Z,17.26
2018-06-22T06:59:52.172Z,17.26
2018-06-22T07:00:52.219Z,17.26
2018-06-22T07:01:52.269Z,17.26
2018-06-22T07:02:52.329Z,17.20
2018-06-22T07:03:52.563Z,17.17
2018-06-22T07:04:52.391Z,17.15
2018-06-22T07:05:52.425Z,17.14
2018-06-22T07:06:52.475Z,17.13
2018-06-22T07:07:52.523Z,17.08
2018-06-22T07:08:52.578Z,17.08
2018-06-22T07:09:52.608Z,17.07
2018-06-22T07:10:52.630Z,17.04
2018-06-22T07:11:52.709Z,17.06
2018-06-22T07:12:52.766Z,17.06
2018-06-22T07:13:52.791Z,17.04
2018-06-22T07:14:52.821Z,17.06
2018-06-22T07:15:52.869Z,17.14
2018-06-22T07:16:52.897Z,17.06
2018-06-22T07:17:52.961Z,17.04
2018-06-22T07:18:53.197Z,17.07
2018-06-22T07:19:53.039Z,17.11
2018-06-22T07:20:53.096Z,17.07
2018-06-22T07:21:53.147Z,16.99
2018-06-22T07:22:53.204Z,17.08
2018-06-22T07:23:53.215Z,17.11
2018-06-22T07:24:53.257Z,17.10
2018-06-22T07:25:53.308Z,17.13
2018-06-22T07:26:53.380Z,17.18
2018-06-22T07:27:53.371Z,17.14
2018-06-22T07:28:53.453Z,17.10
2018-06-22T07:29:53.485Z,17.13
2018-06-22T07:30:53.702Z,17.07
2018-06-22T07:31:53.592Z,17.07
2018-06-22T07:32:53.608Z,17.06
2018-06-22T07:33:53.665Z,16.99
2018-06-22T07:34:53.679Z,17.04
2018-06-22T07:35:53.738Z,16.89
2018-06-22T07:36:53.776Z,16.95
2018-06-22T07:37:53.827Z,16.98
2018-06-22T07:38:53.870Z,16.95
2018-06-22T07:39:53.937Z,16.89
2018-06-22T07:40:53.948Z,16.81
2018-06-22T07:41:54.001Z,16.80
2018-06-22T07:42:54.263Z,16.77
2018-06-22T07:43:54.093Z,16.74
2018-06-22T07:44:54.140Z,16.71
2018-06-22T07:45:54.151Z,16.77
2018-06-22T07:46:54.220Z,16.68
2018-06-22T07:47:54.269Z,16.73
2018-06-22T07:48:54.298Z,16.71
2018-06-22T07:49:54.388Z,16.59
2018-06-22T07:50:54.372Z,16.60
2018-06-22T07:51:54.418Z,16.55
2018-06-22T07:52:54.488Z,16.52
2018-06-22T07:53:54.520Z,16.55
2018-06-22T07:54:54.785Z,16.56
2018-06-22T07:55:54.585Z,16.53
2018-06-22T07:56:54.646Z,16.50
2018-06-22T07:57:54.762Z,16.52
2018-06-22T07:58:54.730Z,16.58
2018-06-22T07:59:54.786Z,16.50
2018-06-22T08:00:54.811Z,16.53
2018-06-22T08:01:54.858Z,16.45
2018-06-22T08:02:54.929Z,16.42
2018-06-22T08:03:54.946Z,16.49
2018-06-22T08:04:55.003Z,16.41
2018-06-22T08:05:55.237Z,16.49
2018-06-22T08:06:55.078Z,16.37
2018-06-22T08:07:55.148Z,16.38
2018-06-22T08:08:55.159Z,16.48
2018-06-22T08:09:55.196Z,16.49
2018-06-22T08:10:55.243Z,16.52
2018-06-22T08:11:55.301Z,16.50
2018-06-22T08:12:55.323Z,16.56
2018-06-22T08:13:55.399Z,16.62
2018-06-22T08:14:55.447Z,16.68
2018-06-22T08:15:55.461Z,16.70
2018-06-22T08:16:55.523Z,16.75
2018-06-22T08:17:55.560Z,16.71
2018-06-22T08:18:55.599Z,16.78
2018-06-22T08:19:55.633Z,16.81
2018-06-22T08:20:55.685Z,16.81
2018-06-22T08:21:55.983Z,16.86
2018-06-22T08:22:55.762Z,16.85
2018-06-22T08:23:55.802Z,16.83
2018-06-22T08:24:55.858Z,16.75
2018-06-22T08:25:55.883Z,16.70
2018-06-22T08:26:55.990Z,16.74
2018-06-22T08:27:55.966Z,16.74
2018-06-22T08:28:56.012Z,16.63
2018-06-22T08:29:56.052Z,16.68
2018-06-22T08:30:56.089Z,16.75
2018-06-22T08:31:56.161Z,16.68
2018-06-22T08:32:56.183Z,16.63
2018-06-22T08:33:56.437Z,16.55
2018-06-22T08:34:56.295Z,16.62
2018-06-22T08:35:56.315Z,16.65
2018-06-22T08:36:56.339Z,16.73
2018-06-22T08:37:56.443Z,16.75
2018-06-22T08:38:56.458Z,16.71
2018-06-22T08:39:56.487Z,16.70
2018-06-22T08:40:56.531Z,16.68
2018-06-22T08:41:56.757Z,16.62
2018-06-22T08:42:56.640Z,16.63
2018-06-22T08:43:56.650Z,16.60
2018-06-22T08:44:56.700Z,16.68
2018-06-22T08:45:56.754Z,16.70
2018-06-22T08:46:56.778Z,16.68
2018-06-22T08:47:56.844Z,16.77
2018-06-22T08:48:56.886Z,16.85
2018-06-22T08:49:56.914Z,16.92
2018-06-22T08:50:56.970Z,16.77
2018-06-22T08:51:57.005Z,16.80
2018-06-22T08:52:57.046Z,16.86
2018-06-22T08:53:57.073Z,16.80
2018-06-22T08:54:57.145Z,16.78
2018-06-22T08:55:57.173Z,16.71
2018-06-22T08:56:57.196Z,16.89
2018-06-22T08:57:57.245Z,16.80
2018-06-22T08:58:57.299Z,16.80
2018-06-22T08:59:57.613Z,16.80
2018-06-22T09:00:57.398Z,16.78
2018-06-22T09:01:57.442Z,16.75
2018-06-22T09:02:57.478Z,16.75
2018-06-22T09:03:57.511Z,16.63
2018-06-22T09:04:57.540Z,16.74
2018-06-22T09:05:57.594Z,16.63
2018-06-22T09:06:57.611Z,16.62
2018-06-22T09:07:57.666Z,16.60
2018-06-22T09:08:57.694Z,16.62
2018-06-22T09:09:57.768Z,16.67
2018-06-22T09:10:57.820Z,16.70
2018-06-22T09:11:57.837Z,16.70
2018-06-22T09:12:57.878Z,16.67
2018-06-22T09:13:57.929Z,16.65
2018-06-22T09:14:57.946Z,16.58
2018-06-22T09:15:58.020Z,16.58
2018-06-22T09:16:58.045Z,16.56
2018-06-22T09:17:58.105Z,16.58
2018-06-22T09:18:58.152Z,16.55
2018-06-22T09:19:58.436Z,16.56
2018-06-22T09:20:58.262Z,16.58
2018-06-22T09:21:58.270Z,16.52
2018-06-22T09:22:58.312Z,16.56
2018-06-22T09:23:58.344Z,16.50
2018-06-22T09:24:58.394Z,16.49
2018-06-22T09:25:58.441Z,16.49
2018-06-22T09:26:58.483Z,16.52
2018-06-22T09:27:58.507Z,16.37
2018-06-22T09:28:58.590Z,16.49
2018-06-22T09:29:58.600Z,16.55
2018-06-22T09:30:58.655Z,16.38
2018-06-22T09:31:58.884Z,16.44
2018-06-22T09:32:58.707Z,16.40
2018-06-22T09:33:58.757Z,16.42
2018-06-22T09:34:58.825Z,16.38
2018-06-22T09:35:58.867Z,16.40
2018-06-22T09:36:58.904Z,16.42
2018-06-22T09:37:58.935Z,16.44
2018-06-22T09:38:58.999Z,16.42
2018-06-22T09:39:58.998Z,16.45
2018-06-22T09:40:59.056Z,16.53
2018-06-22T09:41:59.125Z,16.52
2018-06-22T09:42:59.376Z,16.45
2018-06-22T09:43:59.201Z,16.48
2018-06-22T09:44:59.237Z,16.52
2018-06-22T09:45:59.269Z,16.58
2018-06-22T09:46:59.323Z,16.52
2018-06-22T09:47:59.342Z,16.49
2018-06-22T09:48:59.398Z,16.53
2018-06-22T09:49:59.457Z,16.53
2018-06-22T09:50:59.484Z,16.52
2018-06-22T09:51:59.537Z,16.45
2018-06-22T09:52:59.630Z,16.41
2018-06-22T09:53:59.633Z,16.50
2018-06-22T09:54:59.643Z,16.52
2018-06-22T09:55:59.698Z,16.50
2018-06-22T09:56:59.741Z,16.50
2018-06-22T09:57:59.768Z,16.62
2018-06-22T09:58:59.795Z,16.49
2018-06-22T09:59:59.886Z,16.53
2018-06-22T10:00:59.888Z,16.52
2018-06-22T10:01:59.939Z,16.58
2018-06-22T10:02:59.973Z,16.52
2018-06-22T10:04:00.032Z,16.45
2018-06-22T10:05:00.077Z,16.56
2018-06-22T10:06:00.176Z,16.48
2018-06-22T10:07:00.159Z,16.45
2018-06-22T10:08:00.188Z,16.42
2018-06-22T10:09:00.254Z,16.48
2018-06-22T10:10:00.285Z,16.44
2018-06-22T10:11:00.537Z,16.48
2018-06-22T10:12:00.374Z,16.56
2018-06-22T10:13:00.403Z,16.52
2018-06-22T10:14:00.459Z,16.60
2018-06-22T10:15:00.488Z,16.59
2018-06-22T10:16:00.531Z,16.67
2018-06-22T10:17:00.574Z,16.68
2018-06-22T10:18:00.617Z,16.70
2018-06-22T10:19:00.646Z,16.78
2018-06-22T10:20:00.722Z,16.77
2018-06-22T10:21:00.748Z,16.80
2018-06-22T10:22:00.981Z,16.90
2018-06-22T10:23:00.828Z,16.93
2018-06-22T10:24:00.877Z,16.98
2018-06-22T10:25:00.913Z,17.03
2018-06-22T10:26:00.943Z,17.08
2018-06-22T10:27:01.073Z,17.04
2018-06-22T10:28:01.058Z,17.18
2018-06-22T10:29:01.118Z,17.29
2018-06-22T10:30:01.137Z,17.28
2018-06-22T10:31:01.199Z,17.44
2018-06-22T10:32:01.231Z,17.48
2018-06-22T10:33:01.481Z,17.63
2018-06-22T10:34:01.343Z,17.62
2018-06-22T10:35:01.369Z,17.73
2018-06-22T10:36:01.405Z,17.73
2018-06-22T10:37:01.428Z,17.82
2018-06-22T10:38:01.467Z,17.81
2018-06-22T10:39:01.539Z,17.89
2018-06-22T10:40:01.583Z,17.97
2018-06-22T10:41:01.622Z,18.04
2018-06-22T10:42:01.646Z,18.25
2018-06-22T10:43:01.704Z,18.46
2018-06-22T10:44:01.750Z,19.01
2018-06-22T10:45:01.789Z,19.46
2018-06-22T10:46:01.884Z,19.68
2018-06-22T10:47:01.884Z,19.83
2018-06-22T10:48:01.914Z,19.78
2018-06-22T10:49:02.177Z,19.93
2018-06-22T10:50:02.027Z,20.34
2018-06-22T10:51:02.060Z,20.80
2018-06-22T10:52:02.102Z,21.16
2018-06-22T10:53:02.178Z,21.45
2018-06-22T10:54:02.204Z,21.75
2018-06-22T10:55:02.239Z,21.57
2018-06-22T10:56:02.314Z,21.64
2018-06-22T10:57:02.340Z,21.83
2018-06-22T10:58:02.388Z,21.76
2018-06-22T10:59:02.427Z,21.51
2018-06-22T11:00:02.543Z,21.35
2018-06-22T11:01:02.522Z,21.27
2018-06-22T11:02:02.591Z,21.20
2018-06-22T11:03:02.631Z,21.16
2018-06-22T11:04:02.675Z,21.20
2018-06-22T11:05:02.699Z,21.36
2018-06-22T11:06:02.763Z,21.17
2018-06-22T11:07:02.808Z,21.27
2018-06-22T11:08:02.867Z,21.76
2018-06-22T11:09:02.935Z,22.09
2018-06-22T11:10:02.950Z,22.16
2018-06-22T11:11:02.982Z,22.49
2018-06-22T11:12:03.032Z,22.57
2018-06-22T11:13:03.107Z,22.64
2018-06-22T11:14:03.180Z,22.62
2018-06-22T11:15:03.169Z,22.16
2018-06-22T11:16:03.260Z,21.88
2018-06-22T11:17:03.416Z,21.74
2018-06-22T11:18:03.327Z,21.44
2018-06-22T11:19:03.401Z,21.23
2018-06-22T11:20:03.416Z,21.14
2018-06-22T11:21:03.505Z,20.98
2018-06-22T11:22:03.508Z,20.81
2018-06-22T11:23:03.574Z,20.81
2018-06-22T11:24:03.652Z,20.66
2018-06-22T11:25:03.691Z,20.61
2018-06-22T11:26:03.726Z,20.54
2018-06-22T11:27:03.767Z,20.66
2018-06-22T11:28:03.798Z,20.71
2018-06-22T11:29:03.873Z,20.74
2018-06-22T11:30:03.911Z,20.72
2018-06-22T11:31:03.956Z,20.65
2018-06-22T11:32:03.981Z,21.05
2018-06-22T11:33:04.060Z,21.54
2018-06-22T11:34:04.109Z,21.59
2018-06-22T11:35:04.137Z,21.59
2018-06-22T11:36:04.185Z,21.44
2018-06-22T11:37:04.245Z,21.35
2018-06-22T11:38:04.290Z,21.26
2018-06-22T11:39:04.320Z,21.24
2018-06-22T11:40:04.396Z,21.19
2018-06-22T11:41:04.439Z,21.04
2018-06-22T11:42:04.465Z,21.06
2018-06-22T11:43:04.724Z,21.05
2018-06-22T11:44:04.565Z,21.09
2018-06-22T11:45:04.616Z,21.20
2018-06-22T11:46:04.647Z,21.75
2018-06-22T11:47:04.708Z,21.88
2018-06-22T11:48:04.779Z,21.88
2018-06-22T11:49:04.832Z,21.91
2018-06-22T11:50:04.850Z,21.94
2018-06-22T11:51:04.983Z,21.79
2018-06-22T11:52:04.955Z,21.81
2018-06-22T11:53:04.996Z,21.85
2018-06-22T11:54:05.055Z,21.83
2018-06-22T11:55:05.077Z,22.02
2018-06-22T11:56:05.167Z,21.91
2018-06-22T11:57:05.179Z,21.82
2018-06-22T11:58:05.243Z,22.07
2018-06-22T11:59:05.349Z,22.34
2018-06-22T12:00:05.354Z,22.20
2018-06-22T12:01:05.391Z,22.10
2018-06-22T12:02:05.427Z,22.09
2018-06-22T12:03:05.482Z,22.12
2018-06-22T12:04:05.533Z,22.68
2018-06-22T12:05:05.568Z,23.01
2018-06-22T12:06:05.641Z,23.22
2018-06-22T12:07:05.691Z,23.31
2018-06-22T12:08:05.719Z,23.35
2018-06-22T12:09:05.776Z,23.34
2018-06-22T12:10:05.860Z,23.27
2018-06-22T12:11:05.866Z,23.24
2018-06-22T12:12:05.921Z,23.27
2018-06-22T12:13:05.966Z,23.22
2018-06-22T12:14:06.028Z,22.97
2018-06-22T12:15:06.075Z,22.84
2018-06-22T12:16:06.107Z,22.74
2018-06-22T12:17:06.192Z,22.93
2018-06-22T12:18:06.236Z,23.49
2018-06-22T12:19:06.341Z,24.05
2018-06-22T12:20:06.334Z,24.27
2018-06-22T12:21:06.383Z,24.24
2018-06-22T12:22:06.454Z,24.24
2018-06-22T12:23:06.464Z,24.01
2018-06-22T12:24:06.525Z,23.77
2018-06-22T12:25:06.586Z,23.60
2018-06-22T12:26:06.825Z,23.65
2018-06-22T12:27:06.682Z,24.00
2018-06-22T12:28:06.704Z,24.42
2018-06-22T12:29:06.765Z,24.59
2018-06-22T12:30:06.830Z,25.15
2018-06-22T12:31:06.868Z,25.35
2018-06-22T12:32:06.909Z,25.17
2018-06-22T12:33:07.031Z,24.97
2018-06-22T12:34:07.000Z,24.75
2018-06-22T12:35:07.056Z,24.67
2018-06-22T12:36:07.146Z,25.22
2018-06-22T12:37:07.181Z,26.08
2018-06-22T12:38:07.203Z,26.42
2018-06-22T12:39:07.300Z,26.77
2018-06-22T12:40:07.312Z,27.21
2018-06-22T12:41:07.384Z,27.85
2018-06-22T12:42:07.449Z,28.11
2018-06-22T12:43:07.473Z,27.71
2018-06-22T12:44:07.530Z,27.33
2018-06-22T12:45:07.668Z,26.98
2018-06-22T12:46:07.666Z,26.76
2018-06-22T12:47:07.696Z,26.74
2018-06-22T12:48:07.768Z,27.19
2018-06-22T12:49:07.797Z,27.38
2018-06-22T12:50:07.845Z,27.14
2018-06-22T12:51:07.912Z,27.35
2018-06-22T12:52:07.953Z,27.73
2018-06-22T12:53:08.022Z,27.70